Time;durP1;ratioP1;P1;durP2;ratioP2;P2;SDS_P1;SDS_P2;PMS_P1;PMS_P2;Temp;Humidity;BMP_temperature;BMP_pressure;BME280_temperature;BME280_humidity;BME280_pressure;Samples;Min_cycle;Max_cycle;Signal;HPM_P1;HPM_P2
2021/05/21 00:02:18;;;;;;;1.70;0.77;;;;;13.60;100265.00;;;;10484572;28;20190;-78
2021/05/21 00:07:19;;;;;;;3.80;0.60;;;;;13.60;100269.00;;;;10483630;28;20221;-77
2021/05/21 00:12:22;;;;;;;4.17;0.80;;;;;13.50;100248.00;;;;10467750;28;20268;-78
2021/05/21 00:17:24;;;;;;;3.30;1.03;;;;;13.50;100243.00;;;;10467021;28;20194;-77
2021/05/21 00:22:26;;;;;;;1.93;0.93;;;;;13.50;100229.00;;;;10500239;28;20194;-78
2021/05/21 00:27:28;;;;;;;2.30;0.90;;;;;13.40;100234.00;;;;10529065;28;20221;-78
2021/05/21 00:32:30;;;;;;;4.83;0.90;;;;;13.30;100222.00;;;;10510840;28;20279;-76
2021/05/21 00:37:33;;;;;;;5.23;0.97;;;;;13.30;100232.00;;;;10511173;28;20189;-78
2021/05/21 00:42:35;;;;;;;1.73;0.90;;;;;13.30;100216.00;;;;10509312;28;20235;-78
2021/05/21 00:47:37;;;;;;;2.53;0.90;;;;;13.20;100203.00;;;;10510768;28;20216;-77
2021/05/21 00:52:42;;;;;;;4.20;1.10;;;;;13.20;100195.00;;;;10525291;28;20648;-77
2021/05/21 00:57:44;;;;;;;1.97;0.80;;;;;13.30;100201.00;;;;10482540;28;20204;-77
2021/05/21 01:02:46;;;;;;;3.23;1.27;;;;;13.40;100194.00;;;;10447958;28;20197;-77
2021/05/21 01:07:49;;;;;;;3.73;1.00;;;;;13.50;100182.00;;;;10465438;28;20248;-77
2021/05/21 01:12:51;;;;;;;3.87;0.90;;;;;13.50;100175.00;;;;10515817;28;20240;-77
2021/05/21 01:17:53;;;;;;;6.93;1.47;;;;;13.50;100178.00;;;;10497804;28;20197;-77
2021/05/21 01:22:55;;;;;;;3.90;1.23;;;;;13.50;100157.00;;;;10497859;28;20193;-77
2021/05/21 01:27:58;;;;;;;3.50;1.30;;;;;13.50;100163.00;;;;10522033;28;20239;-77
2021/05/21 01:33:08;;;;;;;3.33;1.60;;;;;13.40;100166.00;;;;10489092;28;20189;-78
2021/05/21 01:38:12;;;;;;;3.47;1.43;;;;;13.40;100161.00;;;;10505995;28;20290;-77
2021/05/21 01:43:15;;;;;;;2.30;1.30;;;;;13.40;100158.00;;;;10505828;28;20196;-77
2021/05/21 01:48:18;;;;;;;3.80;1.33;;;;;13.20;100157.00;;;;10522513;28;20577;-76
2021/05/21 01:53:20;;;;;;;3.20;1.67;;;;;13.10;100145.00;;;;10504170;28;20254;-77
2021/05/21 01:58:21;;;;;;;3.37;1.70;;;;;13.10;100138.00;;;;10504866;28;20247;-77
2021/05/21 02:03:23;;;;;;;4.07;1.47;;;;;13.10;100129.00;;;;10504191;28;20559;-77
2021/05/21 02:08:26;;;;;;;3.53;1.50;;;;;13.10;100136.00;;;;10521196;28;20244;-77
2021/05/21 02:13:28;;;;;;;3.83;1.53;;;;;13.10;100129.00;;;;10542492;28;20651;-77
2021/05/21 02:18:29;;;;;;;3.20;1.80;;;;;13.10;100138.00;;;;10529173;28;20223;-77
2021/05/21 02:23:32;;;;;;;4.27;1.40;;;;;13.10;100130.00;;;;10529558;28;20189;-77
2021/05/21 02:28:34;;;;;;;4.33;1.60;;;;;13.10;100133.00;;;;10512848;28;20221;-77
2021/05/21 02:33:36;;;;;;;3.13;1.67;;;;;13.20;100130.00;;;;10513830;28;20227;-77
2021/05/21 02:38:38;;;;;;;3.93;1.20;;;;;13.20;100132.00;;;;10529928;28;20193;-77
2021/05/21 02:43:40;;;;;;;7.20;1.40;;;;;13.10;100115.00;;;;10512607;28;20270;-78
2021/05/21 02:48:42;;;;;;;4.73;1.60;;;;;13.00;100134.00;;;;10530004;28;20216;-78
2021/05/21 02:53:43;;;;;;;5.03;1.20;;;;;12.90;100142.00;;;;10512357;28;20636;-77
2021/05/21 02:58:45;;;;;;;2.57;1.10;;;;;12.80;100126.00;;;;10495717;28;20235;-78
2021/05/21 03:03:47;;;;;;;5.67;1.17;;;;;12.70;100119.00;;;;10511910;28;20197;-77
2021/05/21 03:08:49;;;;;;;4.83;1.40;;;;;12.60;100113.00;;;;10528343;28;20282;-77
2021/05/21 03:13:50;;;;;;;5.67;1.40;;;;;12.60;100108.00;;;;10527586;28;20201;-77
2021/05/21 03:18:52;;;;;;;4.53;1.20;;;;;12.50;100111.00;;;;10527909;28;20513;-77
2021/05/21 03:23:54;;;;;;;4.10;1.30;;;;;12.60;100113.00;;;;10527032;28;20200;-77
2021/05/21 03:28:57;;;;;;;2.93;1.57;;;;;12.60;100120.00;;;;10527556;28;20217;-77
2021/05/21 03:33:58;;;;;;;5.60;1.77;;;;;12.60;100116.00;;;;10527314;28;20189;-77
2021/05/21 03:39:02;;;;;;;9.67;2.00;;;;;12.60;100105.00;;;;10526892;28;20235;-77
2021/05/21 03:44:05;;;;;;;11.13;1.77;;;;;12.60;100104.00;;;;10510340;28;20601;-77
2021/05/21 03:49:07;;;;;;;6.70;1.70;;;;;12.40;100108.00;;;;10544907;28;20193;-77
2021/05/21 03:54:09;;;;;;;6.73;1.60;;;;;12.20;100098.00;;;;10526954;28;20204;-77
2021/05/21 03:59:10;;;;;;;5.17;1.70;;;;;12.10;100092.00;;;;10509574;28;20227;-77
2021/05/21 04:04:12;;;;;;;5.73;1.87;;;;;12.00;100088.00;;;;10509308;28;20189;-77
2021/05/21 04:09:15;;;;;;;4.93;1.53;;;;;12.10;100088.00;;;;10525274;28;20248;-77
2021/05/21 04:14:17;;;;;;;8.50;1.73;;;;;12.40;100089.00;;;;10508890;28;20247;-77
2021/05/21 04:19:19;;;;;;;8.30;1.77;;;;;12.40;100075.00;;;;10508654;28;20189;-77
2021/05/21 04:24:22;;;;;;;5.43;1.60;;;;;12.50;100078.00;;;;10525300;28;20853;-77
2021/05/21 04:29:23;;;;;;;6.50;1.70;;;;;12.70;100073.00;;;;10525360;28;20223;-77
2021/05/21 04:34:25;;;;;;;5.47;1.83;;;;;12.80;100077.00;;;;10506304;28;20271;-77
2021/05/21 04:39:28;;;;;;;7.70;1.70;;;;;12.80;100070.00;;;;10506932;28;20189;-77
2021/05/21 04:44:30;;;;;;;7.07;2.70;;;;;12.60;100087.00;;;;10541543;28;20287;-77
2021/05/21 04:49:32;;;;;;;9.33;2.23;;;;;12.40;100073.00;;;;10543157;28;20196;-77
2021/05/21 04:54:35;;;;;;;8.90;2.20;;;;;12.20;100068.00;;;;10542866;28;20213;-77
2021/05/21 04:59:37;;;;;;;6.53;1.87;;;;;12.30;100054.00;;;;10507537;28;20537;-77
2021/05/21 05:04:39;;;;;;;8.40;2.10;;;;;12.50;100051.00;;;;10481683;28;20213;-78
2021/05/21 05:09:41;;;;;;;5.70;1.77;;;;;12.60;100038.00;;;;10521654;28;20193;-77
2021/05/21 05:14:43;;;;;;;12.30;2.53;;;;;12.90;100044.00;;;;10480851;28;20248;-77
2021/05/21 05:19:46;;;;;;;10.17;2.50;;;;;13.10;100041.00;;;;10447981;28;20227;-78
2021/05/21 05:24:48;;;;;;;8.80;2.27;;;;;13.10;100026.00;;;;10476402;28;20652;-78
2021/05/21 05:29:49;;;;;;;12.13;2.90;;;;;13.00;100040.00;;;;10522666;28;20196;-78
2021/05/21 05:34:51;;;;;;;12.80;2.73;;;;;12.80;100034.00;;;;10535176;28;20197;-78
2021/05/21 05:39:53;;;;;;;12.50;3.17;;;;;13.10;100032.00;;;;10505916;28;20652;-77
2021/05/21 05:44:55;;;;;;;14.57;2.60;;;;;13.80;100042.00;;;;10488847;28;20216;-77
2021/05/21 05:49:57;;;;;;;12.77;3.30;;;;;14.70;100034.00;;;;10513089;28;20989;-77
2021/05/21 05:54:58;;;;;;;13.43;3.50;;;;;15.20;100039.00;;;;10493475;28;20197;-77
2021/05/21 06:00:05;;;;;;;12.43;3.27;;;;;15.40;100025.00;;;;10523047;28;20324;-77
2021/05/21 06:05:07;;;;;;;8.83;2.77;;;;;15.70;100024.00;;;;10498389;28;20221;-76
2021/05/21 06:10:10;;;;;;;9.63;3.03;;;;;15.90;100023.00;;;;10497625;28;20216;-76
2021/05/21 06:15:12;;;;;;;15.37;3.00;;;;;16.10;100012.00;;;;10480810;28;20273;-77
2021/05/21 06:20:14;;;;;;;9.40;2.70;;;;;16.40;99993.00;;;;10463530;28;20190;-77
2021/05/21 06:25:19;;;;;;;20.13;3.50;;;;;16.60;99998.00;;;;10495077;28;20255;-77
2021/05/21 06:30:21;;;;;;;12.73;3.50;;;;;17.60;99966.00;;;;10504790;28;20259;-77
2021/05/21 06:35:23;;;;;;;13.27;2.90;;;;;16.50;99993.00;;;;10502922;28;20198;-77
2021/05/21 06:40:25;;;;;;;12.93;2.87;;;;;15.40;100006.00;;;;10464243;28;20194;-77
2021/05/21 06:45:27;;;;;;;14.43;3.30;;;;;16.20;99990.00;;;;10480292;28;20264;-76
2021/05/21 06:50:29;;;;;;;19.53;3.80;;;;;17.70;99989.00;;;;10478453;28;20198;-77
2021/05/21 06:55:31;;;;;;;11.67;3.00;;;;;19.10;99999.00;;;;10496315;28;20208;-77
2021/05/21 07:00:36;;;;;;;14.18;3.55;;;;;18.30;100003.00;;;;10509754;28;20192;-77
2021/05/21 07:05:39;;;;;;;17.65;3.55;;;;;18.70;100005.00;;;;10510484;28;20228;-77
2021/05/21 07:10:41;;;;;;;15.85;3.13;;;;;18.30;100002.00;;;;10527722;28;20204;-77
2021/05/21 07:15:43;;;;;;;14.00;3.43;;;;;17.70;99989.00;;;;10527598;28;20239;-77
2021/05/21 07:20:46;;;;;;;12.77;2.97;;;;;16.90;99999.00;;;;10493388;28;20197;-77
2021/05/21 07:25:49;;;;;;;17.13;3.27;;;;;17.90;99962.00;;;;10509887;28;20204;-77
2021/05/21 07:30:52;;;;;;;9.00;2.40;;;;;18.50;99968.00;;;;10493141;28;20196;-76
2021/05/21 07:35:54;;;;;;;14.75;3.20;;;;;18.90;99965.00;;;;10511748;28;20251;-78
2021/05/21 07:40:56;;;;;;;12.70;3.60;;;;;18.20;99966.00;;;;10503779;28;20644;-77
2021/05/21 07:45:58;;;;;;;16.13;3.35;;;;;17.80;99966.00;;;;10508608;28;20205;-76
2021/05/21 07:51:02;;;;;;;14.88;2.95;;;;;18.50;99968.00;;;;10491973;28;20242;-77
2021/05/21 07:56:04;;;;;;;17.92;3.45;;;;;18.40;99960.00;;;;10543667;28;20185;-77
2021/05/21 08:01:06;;;;;;;10.23;2.55;;;;;17.70;99965.00;;;;10517058;28;20274;-77
2021/05/21 08:06:08;;;;;;;17.23;2.90;;;;;17.00;99969.00;;;;10492201;28;20618;-77
2021/05/21 08:11:10;;;;;;;13.97;3.27;;;;;17.10;99965.00;;;;10542919;28;20185;-76
2021/05/21 08:16:13;;;;;;;14.97;3.00;;;;;16.80;99961.00;;;;10507969;28;20199;-76
2021/05/21 08:21:15;;;;;;;14.13;3.10;;;;;16.60;99961.00;;;;10543054;28;20242;-76
2021/05/21 08:26:17;;;;;;;13.27;3.07;;;;;16.70;99979.00;;;;10507345;28;20564;-76
2021/05/21 08:31:20;;;;;;;13.27;3.27;;;;;17.20;99968.00;;;;10482192;28;20205;-76
2021/05/21 08:36:22;;;;;;;17.77;3.10;;;;;17.40;99955.00;;;;10482245;28;20239;-77
2021/05/21 08:41:28;;;;;;;16.67;3.70;;;;;19.80;99952.00;;;;10465302;28;20182;-76
2021/05/21 08:46:32;;;;;;;15.20;2.50;;;;;19.30;99945.00;;;;10512231;28;20684;-77
2021/05/21 08:51:34;;;;;;;10.82;3.28;;;;;20.60;99936.00;;;;10505257;28;20209;-77
2021/05/21 08:56:56;;;;;;;12.02;3.10;;;;;21.10;99932.00;;;;10492776;28;20203;-77
2021/05/21 09:01:58;;;;;;;11.02;2.90;;;;;21.20;99931.00;;;;10541712;28;20197;-75
2021/05/21 09:07:01;;;;;;;12.32;3.25;;;;;21.80;99940.00;;;;10504970;28;20221;-75
2021/05/21 09:12:05;;;;;;;13.13;3.40;;;;;22.30;99946.00;;;;10506889;28;20200;-75
2021/05/21 09:17:22;;;;;;;12.50;3.30;;;;;21.50;99939.00;;;;10464344;28;20224;-78
2021/05/21 09:22:25;;;;;;;14.10;3.00;;;;;22.00;99933.00;;;;10479653;28;20201;-75
2021/05/21 09:27:27;;;;;;;12.60;2.70;;;;;22.70;99910.00;;;;10506743;28;20698;-75
2021/05/21 09:32:31;;;;;;;12.60;2.90;;;;;21.80;99920.00;;;;10523174;28;20193;-76
2021/05/21 09:37:35;;;;;;;9.38;3.08;;;;;22.30;99910.00;;;;10541623;28;20181;-76
2021/05/21 09:42:51;;;;;;;11.57;3.55;;;;;23.20;99901.00;;;;10507506;28;20284;-77
2021/05/21 09:48:11;;;;;;;10.68;3.42;;;;;23.60;99909.00;;;;10521713;28;20234;-76
2021/05/21 09:53:24;;;;;;;8.88;3.10;;;;;23.00;99907.00;;;;10521734;28;20215;-77
2021/05/21 09:58:41;;;;;;;12.48;2.90;;;;;22.90;99900.00;;;;10522213;28;20243;-76
2021/05/21 10:03:44;;;;;;;8.40;2.38;;;;;22.10;99905.00;;;;10516944;28;20189;-77
2021/05/21 10:08:48;;;;;;;10.85;3.08;;;;;20.60;99907.00;;;;10462464;28;20256;-77
2021/05/21 10:13:50;;;;;;;8.95;2.65;;;;;21.00;99886.00;;;;10486516;28;20220;-77
2021/05/21 10:18:53;;;;;;;8.02;2.67;;;;;20.10;99916.00;;;;10496377;28;20209;-77
2021/05/21 10:24:04;;;;;;;8.68;2.42;;;;;20.80;99892.00;;;;10484621;28;20207;-77
2021/05/21 10:29:10;;;;;;;12.00;3.03;;;;;22.20;99894.00;;;;10540401;28;20208;-76
2021/05/21 10:34:20;;;;;;;10.32;2.47;;;;;22.20;99887.00;;;;10523297;28;20201;-76
2021/05/21 10:40:24;;;;;;;12.95;3.20;;;;;22.10;99897.00;;;;10527799;28;20242;-76
2021/05/21 10:45:55;;;;;;;10.82;2.92;;;;;20.30;99904.00;;;;10319207;28;20216;-76
2021/05/21 10:51:11;;;;;;;8.93;2.95;;;;;20.80;99873.00;;;;10437227;28;20247;-76
2021/05/21 10:56:14;;;;;;;7.50;2.30;;;;;21.90;99880.00;;;;10503559;28;20292;-77
2021/05/21 11:01:22;;;;;;;9.27;2.78;;;;;22.90;99877.00;;;;10494420;28;20228;-76
2021/05/21 11:06:26;;;;;;;9.20;3.08;;;;;24.10;99852.00;;;;10495710;28;20217;-76
2021/05/21 11:11:50;;;;;;;10.15;2.75;;;;;25.10;99857.00;;;;10511139;28;20201;-76
2021/05/21 11:17:15;;;;;;;11.23;3.10;;;;;24.80;99860.00;;;;10511304;28;20195;-76
2021/05/21 11:22:22;;;;;;;9.65;2.47;;;;;24.90;99826.00;;;;10510808;28;20228;-76
2021/05/21 11:27:27;;;;;;;11.35;2.58;;;;;25.00;99856.00;;;;10527569;28;20282;-77
2021/05/21 11:32:30;;;;;;;10.23;2.28;;;;;22.80;99867.00;;;;10545397;28;20191;-76
2021/05/21 11:37:32;;;;;;;8.20;2.50;;;;;22.60;99859.00;;;;10490464;28;20201;-77
2021/05/21 11:42:37;;;;;;;9.68;2.17;;;;;23.00;99855.00;;;;10502908;28;20201;-77
2021/05/21 11:47:40;;;;;;;9.55;2.22;;;;;24.00;99835.00;;;;10483534;28;20300;-77
2021/05/21 11:52:43;;;;;;;7.72;2.60;;;;;23.80;99836.00;;;;10473669;28;20591;-77
2021/05/21 11:57:49;;;;;;;9.45;2.60;;;;;24.20;99833.00;;;;10478379;28;20251;-77
2021/05/21 12:02:51;;;;;;;7.35;2.47;;;;;23.60;99826.00;;;;10480452;28;20250;-77
2021/05/21 12:07:56;;;;;;;12.73;2.72;;;;;23.60;99813.00;;;;10525625;28;20282;-77
2021/05/21 12:13:07;;;;;;;6.75;2.55;;;;;23.40;99800.00;;;;10501068;28;20228;-77
2021/05/21 12:18:11;;;;;;;7.95;2.20;;;;;23.80;99782.00;;;;10481345;28;20199;-77
2021/05/21 12:23:13;;;;;;;6.57;2.45;;;;;24.40;99800.00;;;;10507933;28;20606;-77
2021/05/21 12:28:15;;;;;;;9.52;2.70;;;;;24.80;99828.00;;;;10524597;28;20216;-77
2021/05/21 12:33:17;;;;;;;9.15;2.53;;;;;24.70;99799.00;;;;10482387;28;20224;-77
2021/05/21 12:38:23;;;;;;;11.75;2.58;;;;;23.20;99798.00;;;;10482127;28;20201;-77
2021/05/21 12:43:26;;;;;;;7.75;2.30;;;;;23.90;99804.00;;;;10482066;28;20251;-77
2021/05/21 12:48:36;;;;;;;7.40;2.55;;;;;24.00;99810.00;;;;10497849;28;20699;-77
2021/05/21 12:53:38;;;;;;;7.75;2.00;;;;;23.40;99807.00;;;;10467397;28;20193;-77
2021/05/21 12:58:44;;;;;;;10.25;2.25;;;;;21.60;99794.00;;;;10521621;28;20193;-77
2021/05/21 13:03:54;;;;;;;8.60;1.95;;;;;23.00;99792.00;;;;10490380;28;20208;-77
2021/05/21 13:08:58;;;;;;;9.55;2.65;;;;;23.80;99790.00;;;;10522257;28;20221;-77
2021/05/21 13:14:01;;;;;;;7.38;2.28;;;;;23.00;99777.00;;;;10513755;28;20197;-77
2021/05/21 13:19:03;;;;;;;7.55;1.88;;;;;21.60;99793.00;;;;10494718;28;20224;-77
2021/05/21 13:24:08;;;;;;;9.43;2.63;;;;;21.30;99786.00;;;;10529780;28;20247;-77
2021/05/21 13:29:09;;;;;;;7.90;2.13;;;;;26.30;99780.00;;;;10488321;28;20209;-77
2021/05/21 13:34:11;;;;;;;11.20;2.63;;;;;27.50;99769.00;;;;10486272;28;20624;-76
2021/05/21 13:39:13;;;;;;;6.22;2.00;;;;;29.60;99766.00;;;;10505606;28;20240;-77
2021/05/21 13:44:15;;;;;;;7.22;2.05;;;;;29.20;99761.00;;;;10505267;28;20291;-76
2021/05/21 13:49:23;;;;;;;6.13;2.00;;;;;28.70;99772.00;;;;10538790;28;20239;-77
2021/05/21 13:54:27;;;;;;;9.20;2.40;;;;;30.40;99741.00;;;;10504471;28;20219;-77
2021/05/21 13:59:28;;;;;;;6.38;2.10;;;;;28.60;99739.00;;;;10487964;28;20189;-77
2021/05/21 14:04:30;;;;;;;9.40;2.38;;;;;29.20;99749.00;;;;10504364;28;20196;-76
2021/05/21 14:09:32;;;;;;;9.30;1.95;;;;;28.90;99766.00;;;;10525972;28;20208;-77
2021/05/21 14:14:34;;;;;;;6.05;2.08;;;;;28.00;99750.00;;;;10464968;28;20190;-76
2021/05/21 14:19:36;;;;;;;10.00;2.28;;;;;28.50;99753.00;;;;10470689;28;20213;-77
2021/05/21 14:24:39;;;;;;;6.00;1.95;;;;;24.60;99740.00;;;;10497368;28;20201;-77
2021/05/21 14:29:41;;;;;;;6.28;2.05;;;;;23.80;99737.00;;;;10529007;28;20216;-77
2021/05/21 14:34:46;;;;;;;4.10;1.55;;;;;26.80;99711.00;;;;10547271;28;20200;-77
2021/05/21 14:39:48;;;;;;;8.48;2.20;;;;;28.40;99741.00;;;;10540665;28;20221;-77
2021/05/21 14:44:50;;;;;;;6.35;1.60;;;;;22.90;99718.00;;;;10489939;28;20216;-77
2021/05/21 14:49:52;;;;;;;7.82;1.98;;;;;22.00;99724.00;;;;10528213;28;20252;-76
2021/05/21 14:54:54;;;;;;;11.38;2.33;;;;;27.50;99689.00;;;;10546441;28;20201;-77
2021/05/21 14:59:55;;;;;;;5.57;2.28;;;;;31.50;99667.00;;;;10537754;28;20186;-77
2021/05/21 15:05:00;;;;;;;5.07;1.98;;;;;32.30;99671.00;;;;10505999;28;20696;-76
2021/05/21 15:10:05;;;;;;;6.90;1.77;;;;;30.70;99699.00;;;;10486300;28;20606;-77
2021/05/21 15:25:34;;;;;;;6.40;1.52;;;;;16.90;99808.00;;;;10492198;28;20239;-76
2021/05/21 15:30:51;;;;;;;5.65;1.38;;;;;15.30;99791.00;;;;10482158;28;20688;-76
2021/05/21 15:35:53;;;;;;;10.83;1.87;;;;;20.00;99753.00;;;;10501839;28;20192;-76
2021/05/21 15:40:56;;;;;;;6.15;1.67;;;;;23.20;99732.00;;;;10527876;28;20197;-77
2021/05/21 15:46:14;;;;;;;4.90;1.40;;;;;27.30;99720.00;;;;10543781;28;20706;-77
2021/05/21 16:01:38;;;;;;;7.45;2.03;;;;;26.50;99705.00;;;;10525309;28;20596;-77
2021/05/21 16:06:42;;;;;;;6.20;1.52;;;;;26.50;99704.00;;;;10517042;28;20267;-77
2021/05/21 16:11:44;;;;;;;6.20;1.85;;;;;23.10;99711.00;;;;10488692;28;20252;-77
2021/05/21 16:16:46;;;;;;;5.25;1.70;;;;;21.50;99695.00;;;;10499461;28;20186;-77
2021/05/21 16:21:48;;;;;;;5.82;2.28;;;;;20.90;99686.00;;;;10499387;28;20276;-77
2021/05/21 16:26:50;;;;;;;7.78;1.50;;;;;19.50;99692.00;;;;10512011;28;20213;-77
2021/05/21 16:31:51;;;;;;;6.18;1.63;;;;;18.80;99687.00;;;;10482906;28;20220;-76
2021/05/21 16:36:53;;;;;;;5.70;1.80;;;;;18.40;99670.00;;;;10499377;28;20266;-77
2021/05/21 16:41:55;;;;;;;5.00;1.48;;;;;18.40;99673.00;;;;10498894;28;20193;-76
2021/05/21 16:46:57;;;;;;;10.15;2.00;;;;;18.40;99651.00;;;;10512861;28;20221;-77
2021/05/21 16:52:04;;;;;;;8.40;1.58;;;;;18.20;99644.00;;;;10481774;28;20185;-77
2021/05/21 16:57:06;;;;;;;3.83;1.88;;;;;17.80;99645.00;;;;10470811;28;20201;-77
2021/05/21 17:02:07;;;;;;;5.38;1.70;;;;;17.60;99637.00;;;;10541119;28;20587;-77
2021/05/21 17:07:12;;;;;;;4.70;1.60;;;;;17.50;99630.00;;;;10540947;28;20209;-77
2021/05/21 17:12:14;;;;;;;7.10;1.80;;;;;17.40;99623.00;;;;10486640;28;20231;-77
2021/05/21 17:44:03;;;;;;;4.67;1.50;;;;;15.90;99643.00;;;;10507093;28;20533;-76
2021/05/21 17:54:24;;;;;;;5.73;1.70;;;;;14.30;99635.00;;;;10505620;28;20196;-77
2021/05/21 18:05:17;;;;;;;4.17;1.43;;;;;13.40;99625.00;;;;10511576;28;20205;-78
2021/05/21 18:10:33;;;;;;;6.87;2.17;;;;;13.60;99623.00;;;;10479935;28;20210;-77
2021/05/21 18:27:23;;;;;;;5.57;1.47;;;;;12.80;99617.00;;;;10455043;28;20221;-77
2021/05/21 19:03:45;;;;;;;13.40;2.47;;;;;13.00;99630.00;;;;10497097;28;20292;-77
2021/05/21 19:08:53;;;;;;;8.77;2.30;;;;;13.30;99627.00;;;;10503215;28;20217;-77
2021/05/21 19:14:22;;;;;;;10.23;2.80;;;;;13.00;99622.00;;;;10486630;28;20675;-77
2021/05/21 19:19:25;;;;;;;13.23;2.23;;;;;12.80;99633.00;;;;10469668;28;20193;-77
2021/05/21 19:24:27;;;;;;;4.13;1.30;;;;;12.70;99640.00;;;;10494938;28;20220;-77
2021/05/21 20:01:23;;;;;;;4.63;1.37;;;;;11.60;99655.00;;;;10475381;28;20201;-77
2021/05/21 20:21:56;;;;;;;3.07;1.00;;;;;11.30;99641.00;;;;10505675;28;20200;-78
2021/05/21 20:27:07;;;;;;;1.67;0.90;;;;;11.20;99648.00;;;;10502204;28;20556;-78
2021/05/21 21:14:37;;;;;;;6.53;0.90;;;;;10.30;99627.00;;;;10489377;28;20209;-78
2021/05/21 21:30:16;;;;;;;4.47;1.13;;;;;10.30;99644.00;;;;10540158;28;20227;-77
2021/05/21 21:41:44;;;;;;;3.40;1.27;;;;;10.60;99650.00;;;;10541186;28;20194;-77
2021/05/21 22:22:54;;;;;;;2.03;1.20;;;;;10.60;99638.00;;;;10545436;28;20666;-78
2021/05/21 22:27:56;;;;;;;3.53;1.53;;;;;10.60;99642.00;;;;10505722;28;20259;-78
2021/05/21 22:32:58;;;;;;;5.73;1.23;;;;;10.60;99639.00;;;;10526580;28;20239;-78
2021/05/21 22:38:00;;;;;;;5.07;1.13;;;;;10.50;99645.00;;;;10492845;28;20243;-78
2021/05/21 22:43:02;;;;;;;3.43;1.00;;;;;10.40;99642.00;;;;10492478;28;20247;-78
2021/05/21 22:48:05;;;;;;;3.73;1.27;;;;;10.30;99648.00;;;;10525953;28;20259;-78
2021/05/21 22:53:07;;;;;;;3.73;0.90;;;;;10.30;99649.00;;;;10508407;28;20186;-78
2021/05/21 22:58:09;;;;;;;3.80;1.20;;;;;10.20;99646.00;;;;10548041;28;20192;-78
2021/05/21 23:03:10;;;;;;;3.00;1.17;;;;;10.10;99647.00;;;;10516563;28;20548;-78
2021/05/21 23:08:12;;;;;;;5.50;1.30;;;;;10.10;99639.00;;;;10514492;28;20221;-78
2021/05/21 23:13:15;;;;;;;6.67;2.57;;;;;9.90;99638.00;;;;10515065;28;20201;-78
2021/05/21 23:18:17;;;;;;;8.80;3.60;;;;;9.80;99621.00;;;;10481812;28;20189;-78
2021/05/21 23:23:19;;;;;;;6.00;3.07;;;;;9.70;99621.00;;;;10498511;28;20224;-78
2021/05/21 23:28:21;;;;;;;10.53;3.40;;;;;9.60;99623.00;;;;10498050;28;20872;-78
2021/05/21 23:33:23;;;;;;;6.37;2.80;;;;;9.60;99616.00;;;;10466026;28;20228;-78
2021/05/21 23:38:25;;;;;;;5.53;1.77;;;;;9.60;99621.00;;;;10490215;28;20730;-78
2021/05/21 23:43:27;;;;;;;4.90;2.00;;;;;9.70;99614.00;;;;10505628;28;20270;-78
2021/05/21 23:48:29;;;;;;;5.63;2.00;;;;;9.80;99609.00;;;;10489964;28;20534;-78
2021/05/21 23:53:31;;;;;;;3.97;1.97;;;;;9.90;99604.00;;;;10473951;28;20255;-78
2021/05/21 23:58:33;;;;;;;9.37;2.30;;;;;9.90;99598.00;;;;10530132;28;20181;-78
